sensor_id;sensor_type;location;lat;lon;timestamp;temperature;humidity
5802;DHT22;2927;49.366;8.530;2022-07-30T00:02:15;21.60;1.00
5802;DHT22;2927;49.366;8.530;2022-07-30T00:04:41;21.60;1.00
5802;DHT22;2927;49.366;8.530;2022-07-30T00:07:07;21.60;99.90
5802;DHT22;2927;49.366;8.530;2022-07-30T00:09:33;21.60;99.90
5802;DHT22;2927;49.366;8.530;2022-07-30T00:11:59;21.50;99.90
5802;DHT22;2927;49.366;8.530;2022-07-30T00:14:24;21.40;1.00
5802;DHT22;2927;49.366;8.530;2022-07-30T00:16:51;21.40;1.00
5802;DHT22;2927;49.366;8.530;2022-07-30T00:19:16;21.30;1.00
5802;DHT22;2927;49.366;8.530;2022-07-30T00:21:42;21.20;1.00
5802;DHT22;2927;49.366;8.530;2022-07-30T00:24:07;21.20;1.00
5802;DHT22;2927;49.366;8.530;2022-07-30T00:26:33;21.20;99.90
5802;DHT22;2927;49.366;8.530;2022-07-30T00:28:59;21.10;99.90
5802;DHT22;2927;49.366;8.530;2022-07-30T00:31:24;21.00;99.90
5802;DHT22;2927;49.366;8.530;2022-07-30T00:33:50;21.00;99.90
5802;DHT22;2927;49.366;8.530;2022-07-30T00:36:15;20.90;99.90
5802;DHT22;2927;49.366;8.530;2022-07-30T00:38:41;20.90;1.00
5802;DHT22;2927;49.366;8.530;2022-07-30T00:41:06;20.90;99.90
5802;DHT22;2927;49.366;8.530;2022-07-30T00:43:32;20.80;99.90
5802;DHT22;2927;49.366;8.530;2022-07-30T00:45:57;20.80;1.00
5802;DHT22;2927;49.366;8.530;2022-07-30T00:48:23;20.90;1.00
5802;DHT22;2927;49.366;8.530;2022-07-30T00:50:48;20.90;1.00
5802;DHT22;2927;49.366;8.530;2022-07-30T00:53:14;20.90;1.00
5802;DHT22;2927;49.366;8.530;2022-07-30T00:55:39;20.90;1.00
5802;DHT22;2927;49.366;8.530;2022-07-30T00:58:05;20.90;1.00
5802;DHT22;2927;49.366;8.530;2022-07-30T01:00:31;21.00;1.00
5802;DHT22;2927;49.366;8.530;2022-07-30T01:02:56;21.00;1.00
5802;DHT22;2927;49.366;8.530;2022-07-30T01:05:22;21.00;1.00
5802;DHT22;2927;49.366;8.530;2022-07-30T01:07:47;21.00;1.00
5802;DHT22;2927;49.366;8.530;2022-07-30T01:10:14;20.90;99.90
5802;DHT22;2927;49.366;8.530;2022-07-30T01:12:40;20.90;1.00
5802;DHT22;2927;49.366;8.530;2022-07-30T01:15:07;20.80;1.00
5802;DHT22;2927;49.366;8.530;2022-07-30T01:17:34;20.80;99.90
5802;DHT22;2927;49.366;8.530;2022-07-30T01:20:06;20.80;99.90
5802;DHT22;2927;49.366;8.530;2022-07-30T01:22:53;20.70;99.90
5802;DHT22;2927;49.366;8.530;2022-07-30T01:28:09;20.70;99.90
5802;DHT22;2927;49.366;8.530;2022-07-30T01:30:38;20.70;99.90
5802;DHT22;2927;49.366;8.530;2022-07-30T01:33:05;20.70;99.90
5802;DHT22;2927;49.366;8.530;2022-07-30T01:35:32;20.60;99.90
5802;DHT22;2927;49.366;8.530;2022-07-30T01:37:59;20.50;99.90
5802;DHT22;2927;49.366;8.530;2022-07-30T01:40:27;20.50;99.90
5802;DHT22;2927;49.366;8.530;2022-07-30T01:42:54;20.50;99.90
5802;DHT22;2927;49.366;8.530;2022-07-30T01:45:23;20.60;99.90
5802;DHT22;2927;49.366;8.530;2022-07-30T01:47:51;20.50;99.90
5802;DHT22;2927;49.366;8.530;2022-07-30T01:50:19;20.50;99.90
5802;DHT22;2927;49.366;8.530;2022-07-30T01:52:47;20.50;47.70
5802;DHT22;2927;49.366;8.530;2022-07-30T01:55:15;20.40;94.10
5802;DHT22;2927;49.366;8.530;2022-07-30T01:57:43;20.40;23.00
5802;DHT22;2927;49.366;8.530;2022-07-30T02:00:10;20.40;33.40
5802;DHT22;2927;49.366;8.530;2022-07-30T02:02:36;20.40;30.80
5802;DHT22;2927;49.366;8.530;2022-07-30T02:05:04;20.30;52.50
5802;DHT22;2927;49.366;8.530;2022-07-30T02:07:50;20.30;99.90
5802;DHT22;2927;49.366;8.530;2022-07-30T02:12:50;20.30;92.40
5802;DHT22;2927;49.366;8.530;2022-07-30T02:15:29;20.30;16.90
5802;DHT22;2927;49.366;8.530;2022-07-30T02:18:16;20.30;1.00
5802;DHT22;2927;49.366;8.530;2022-07-30T02:20:50;20.30;1.00
5802;DHT22;2927;49.366;8.530;2022-07-30T02:23:18;20.20;1.00
5802;DHT22;2927;49.366;8.530;2022-07-30T02:25:48;20.20;24.80
5802;DHT22;2927;49.366;8.530;2022-07-30T02:28:14;20.20;7.40
5802;DHT22;2927;49.366;8.530;2022-07-30T02:30:51;20.20;27.50
5802;DHT22;2927;49.366;8.530;2022-07-30T02:33:21;20.10;99.90
5802;DHT22;2927;49.366;8.530;2022-07-30T02:35:49;20.10;99.90
5802;DHT22;2927;49.366;8.530;2022-07-30T02:38:16;20.10;99.90
5802;DHT22;2927;49.366;8.530;2022-07-30T02:40:43;20.10;99.90
5802;DHT22;2927;49.366;8.530;2022-07-30T02:43:13;20.10;99.90
5802;DHT22;2927;49.366;8.530;2022-07-30T02:45:40;20.10;58.40
5802;DHT22;2927;49.366;8.530;2022-07-30T02:48:08;20.00;65.30
5802;DHT22;2927;49.366;8.530;2022-07-30T02:50:34;20.00;69.00
5802;DHT22;2927;49.366;8.530;2022-07-30T02:53:02;20.00;38.40
5802;DHT22;2927;49.366;8.530;2022-07-30T02:55:30;20.00;61.60
5802;DHT22;2927;49.366;8.530;2022-07-30T02:57:57;20.00;27.10
5802;DHT22;2927;49.366;8.530;2022-07-30T03:00:24;19.90;99.90
5802;DHT22;2927;49.366;8.530;2022-07-30T03:02:53;19.80;99.90
5802;DHT22;2927;49.366;8.530;2022-07-30T03:05:20;19.80;99.90
5802;DHT22;2927;49.366;8.530;2022-07-30T03:07:46;19.70;99.90
5802;DHT22;2927;49.366;8.530;2022-07-30T03:10:12;19.70;99.90
5802;DHT22;2927;49.366;8.530;2022-07-30T03:12:40;19.70;99.90
5802;DHT22;2927;49.366;8.530;2022-07-30T03:15:06;19.60;99.90
5802;DHT22;2927;49.366;8.530;2022-07-30T03:17:37;19.50;1.00
5802;DHT22;2927;49.366;8.530;2022-07-30T03:20:06;19.50;1.00
5802;DHT22;2927;49.366;8.530;2022-07-30T03:22:34;19.40;1.00
5802;DHT22;2927;49.366;8.530;2022-07-30T03:25:02;19.30;1.00
5802;DHT22;2927;49.366;8.530;2022-07-30T03:27:30;19.30;1.00
5802;DHT22;2927;49.366;8.530;2022-07-30T03:29:57;19.30;1.00
5802;DHT22;2927;49.366;8.530;2022-07-30T03:32:23;19.30;1.00
5802;DHT22;2927;49.366;8.530;2022-07-30T03:34:49;19.30;1.00
5802;DHT22;2927;49.366;8.530;2022-07-30T03:37:16;19.30;1.00
5802;DHT22;2927;49.366;8.530;2022-07-30T03:39:42;19.30;1.00
5802;DHT22;2927;49.366;8.530;2022-07-30T03:42:08;19.30;1.00
5802;DHT22;2927;49.366;8.530;2022-07-30T03:44:35;19.20;1.00
5802;DHT22;2927;49.366;8.530;2022-07-30T03:47:02;19.20;32.30
5802;DHT22;2927;49.366;8.530;2022-07-30T03:49:29;19.20;94.90
5802;DHT22;2927;49.366;8.530;2022-07-30T03:51:55;19.20;47.00
5802;DHT22;2927;49.366;8.530;2022-07-30T03:54:21;19.20;3.60
5802;DHT22;2927;49.366;8.530;2022-07-30T03:56:47;19.30;1.00
5802;DHT22;2927;49.366;8.530;2022-07-30T03:59:13;19.40;99.90
5802;DHT22;2927;49.366;8.530;2022-07-30T04:01:39;19.40;99.90
5802;DHT22;2927;49.366;8.530;2022-07-30T04:04:08;19.50;99.90
5802;DHT22;2927;49.366;8.530;2022-07-30T04:06:35;19.50;99.90
5802;DHT22;2927;49.366;8.530;2022-07-30T04:09:08;19.50;99.90
5802;DHT22;2927;49.366;8.530;2022-07-30T04:11:34;19.40;99.90
5802;DHT22;2927;49.366;8.530;2022-07-30T04:14:00;19.40;1.00
5802;DHT22;2927;49.366;8.530;2022-07-30T04:19:22;19.40;1.00
5802;DHT22;2927;49.366;8.530;2022-07-30T04:21:49;19.30;1.00
5802;DHT22;2927;49.366;8.530;2022-07-30T04:24:16;19.30;99.90
5802;DHT22;2927;49.366;8.530;2022-07-30T04:26:43;19.10;1.00
5802;DHT22;2927;49.366;8.530;2022-07-30T04:29:09;19.20;1.00
5802;DHT22;2927;49.366;8.530;2022-07-30T04:31:35;19.10;1.00
5802;DHT22;2927;49.366;8.530;2022-07-30T04:34:03;19.10;1.00
5802;DHT22;2927;49.366;8.530;2022-07-30T04:36:30;19.30;1.00
5802;DHT22;2927;49.366;8.530;2022-07-30T04:38:57;19.30;99.90
5802;DHT22;2927;49.366;8.530;2022-07-30T04:41:22;19.40;99.90
5802;DHT22;2927;49.366;8.530;2022-07-30T04:43:49;19.40;1.00
5802;DHT22;2927;49.366;8.530;2022-07-30T04:46:14;19.50;1.00
5802;DHT22;2927;49.366;8.530;2022-07-30T04:48:40;19.50;1.00
5802;DHT22;2927;49.366;8.530;2022-07-30T04:51:11;19.50;1.00
5802;DHT22;2927;49.366;8.530;2022-07-30T04:53:37;19.60;1.00
5802;DHT22;2927;49.366;8.530;2022-07-30T04:56:05;19.60;1.00
5802;DHT22;2927;49.366;8.530;2022-07-30T04:58:32;19.60;1.00
5802;DHT22;2927;49.366;8.530;2022-07-30T05:00:59;19.60;1.00
5802;DHT22;2927;49.366;8.530;2022-07-30T05:03:26;19.70;1.00
5802;DHT22;2927;49.366;8.530;2022-07-30T05:05:54;19.70;1.00
5802;DHT22;2927;49.366;8.530;2022-07-30T05:08:22;19.70;1.00
5802;DHT22;2927;49.366;8.530;2022-07-30T05:10:47;19.70;1.00
5802;DHT22;2927;49.366;8.530;2022-07-30T05:13:13;19.70;1.00
5802;DHT22;2927;49.366;8.530;2022-07-30T05:15:39;19.80;1.00
5802;DHT22;2927;49.366;8.530;2022-07-30T05:18:05;19.80;1.00
5802;DHT22;2927;49.366;8.530;2022-07-30T05:20:31;19.90;1.00
5802;DHT22;2927;49.366;8.530;2022-07-30T05:22:56;20.00;1.00
5802;DHT22;2927;49.366;8.530;2022-07-30T05:25:22;20.10;99.90
5802;DHT22;2927;49.366;8.530;2022-07-30T05:27:47;20.10;99.90
5802;DHT22;2927;49.366;8.530;2022-07-30T05:30:13;20.20;99.90
5802;DHT22;2927;49.366;8.530;2022-07-30T05:32:38;20.20;99.90
5802;DHT22;2927;49.366;8.530;2022-07-30T05:35:04;20.20;99.90
5802;DHT22;2927;49.366;8.530;2022-07-30T05:37:30;20.20;1.00
5802;DHT22;2927;49.366;8.530;2022-07-30T05:39:55;20.20;1.00
5802;DHT22;2927;49.366;8.530;2022-07-30T05:42:21;20.20;1.00
5802;DHT22;2927;49.366;8.530;2022-07-30T05:44:46;20.30;1.00
5802;DHT22;2927;49.366;8.530;2022-07-30T05:47:12;20.40;1.00
5802;DHT22;2927;49.366;8.530;2022-07-30T05:49:37;20.50;99.90
5802;DHT22;2927;49.366;8.530;2022-07-30T05:52:03;20.50;1.00
5802;DHT22;2927;49.366;8.530;2022-07-30T05:54:29;20.60;99.90
5802;DHT22;2927;49.366;8.530;2022-07-30T05:56:54;20.80;99.90
5802;DHT22;2927;49.366;8.530;2022-07-30T05:59:20;20.90;1.00
5802;DHT22;2927;49.366;8.530;2022-07-30T06:01:45;21.10;1.00
5802;DHT22;2927;49.366;8.530;2022-07-30T06:04:11;21.00;1.00
5802;DHT22;2927;49.366;8.530;2022-07-30T06:06:37;21.20;1.00
5802;DHT22;2927;49.366;8.530;2022-07-30T06:09:02;21.50;1.00
5802;DHT22;2927;49.366;8.530;2022-07-30T06:11:28;22.00;1.00
5802;DHT22;2927;49.366;8.530;2022-07-30T06:13:53;22.20;1.00
5802;DHT22;2927;49.366;8.530;2022-07-30T06:16:19;22.50;1.00
5802;DHT22;2927;49.366;8.530;2022-07-30T06:18:44;22.50;1.00
5802;DHT22;2927;49.366;8.530;2022-07-30T06:21:10;22.70;1.00
5802;DHT22;2927;49.366;8.530;2022-07-30T06:23:35;22.90;1.00
5802;DHT22;2927;49.366;8.530;2022-07-30T06:26:01;22.90;1.00
5802;DHT22;2927;49.366;8.530;2022-07-30T06:28:27;23.00;1.00
5802;DHT22;2927;49.366;8.530;2022-07-30T06:30:52;23.30;1.00
5802;DHT22;2927;49.366;8.530;2022-07-30T06:33:18;23.10;99.90
5802;DHT22;2927;49.366;8.530;2022-07-30T06:35:43;23.60;99.90
5802;DHT22;2927;49.366;8.530;2022-07-30T06:38:09;23.60;99.90
5802;DHT22;2927;49.366;8.530;2022-07-30T06:40:35;23.70;99.90
5802;DHT22;2927;49.366;8.530;2022-07-30T06:43:00;23.40;99.90
5802;DHT22;2927;49.366;8.530;2022-07-30T06:45:26;23.90;99.90
5802;DHT22;2927;49.366;8.530;2022-07-30T06:47:56;23.80;42.60
5802;DHT22;2927;49.366;8.530;2022-07-30T06:50:22;23.40;40.20
5802;DHT22;2927;49.366;8.530;2022-07-30T06:52:48;23.40;90.10
5802;DHT22;2927;49.366;8.530;2022-07-30T06:55:13;23.70;1.00
5802;DHT22;2927;49.366;8.530;2022-07-30T06:57:39;24.10;1.00
5802;DHT22;2927;49.366;8.530;2022-07-30T07:00:05;24.50;1.00
5802;DHT22;2927;49.366;8.530;2022-07-30T07:02:32;24.20;1.00
5802;DHT22;2927;49.366;8.530;2022-07-30T07:04:58;24.60;1.00
5802;DHT22;2927;49.366;8.530;2022-07-30T07:07:23;24.20;1.00
5802;DHT22;2927;49.366;8.530;2022-07-30T07:09:48;24.20;1.00
5802;DHT22;2927;49.366;8.530;2022-07-30T07:12:14;24.40;1.00
5802;DHT22;2927;49.366;8.530;2022-07-30T07:14:39;24.30;1.00
5802;DHT22;2927;49.366;8.530;2022-07-30T07:17:05;24.40;1.00
5802;DHT22;2927;49.366;8.530;2022-07-30T07:19:30;24.60;1.00
5802;DHT22;2927;49.366;8.530;2022-07-30T07:21:56;24.80;1.00
5802;DHT22;2927;49.366;8.530;2022-07-30T07:24:22;24.60;1.00
5802;DHT22;2927;49.366;8.530;2022-07-30T07:26:48;24.50;1.00
5802;DHT22;2927;49.366;8.530;2022-07-30T07:29:13;24.50;1.00
5802;DHT22;2927;49.366;8.530;2022-07-30T07:31:39;24.60;1.00
5802;DHT22;2927;49.366;8.530;2022-07-30T07:34:05;25.40;1.00
5802;DHT22;2927;49.366;8.530;2022-07-30T07:36:31;26.10;1.00
5802;DHT22;2927;49.366;8.530;2022-07-30T07:38:56;26.40;1.00
5802;DHT22;2927;49.366;8.530;2022-07-30T07:41:22;26.30;1.00
5802;DHT22;2927;49.366;8.530;2022-07-30T07:43:47;26.10;1.00
5802;DHT22;2927;49.366;8.530;2022-07-30T07:46:13;26.40;1.00
5802;DHT22;2927;49.366;8.530;2022-07-30T07:48:42;26.80;1.00
5802;DHT22;2927;49.366;8.530;2022-07-30T07:51:07;26.40;1.00
5802;DHT22;2927;49.366;8.530;2022-07-30T07:53:33;25.60;1.00
5802;DHT22;2927;49.366;8.530;2022-07-30T07:55:58;25.80;1.00
5802;DHT22;2927;49.366;8.530;2022-07-30T07:58:24;25.90;1.00
5802;DHT22;2927;49.366;8.530;2022-07-30T08:00:50;26.20;1.00
5802;DHT22;2927;49.366;8.530;2022-07-30T08:03:15;26.40;1.00
5802;DHT22;2927;49.366;8.530;2022-07-30T08:05:41;27.00;1.00
5802;DHT22;2927;49.366;8.530;2022-07-30T08:08:06;26.50;1.00
5802;DHT22;2927;49.366;8.530;2022-07-30T08:10:32;26.30;1.00
5802;DHT22;2927;49.366;8.530;2022-07-30T08:12:57;26.20;1.00
5802;DHT22;2927;49.366;8.530;2022-07-30T08:15:23;27.40;1.00
5802;DHT22;2927;49.366;8.530;2022-07-30T08:17:49;26.80;1.00
5802;DHT22;2927;49.366;8.530;2022-07-30T08:20:15;26.40;1.00
5802;DHT22;2927;49.366;8.530;2022-07-30T08:22:41;26.10;1.00
5802;DHT22;2927;49.366;8.530;2022-07-30T08:25:07;26.10;1.00
5802;DHT22;2927;49.366;8.530;2022-07-30T08:27:33;25.50;1.00
5802;DHT22;2927;49.366;8.530;2022-07-30T08:30:06;25.50;1.00
5802;DHT22;2927;49.366;8.530;2022-07-30T08:32:33;25.90;1.00
5802;DHT22;2927;49.366;8.530;2022-07-30T08:34:58;26.40;1.00
5802;DHT22;2927;49.366;8.530;2022-07-30T08:37:24;27.10;1.00
5802;DHT22;2927;49.366;8.530;2022-07-30T08:39:49;27.00;1.00
5802;DHT22;2927;49.366;8.530;2022-07-30T08:42:16;27.20;1.00
5802;DHT22;2927;49.366;8.530;2022-07-30T08:44:43;27.10;1.00
5802;DHT22;2927;49.366;8.530;2022-07-30T08:47:10;26.90;1.00
5802;DHT22;2927;49.366;8.530;2022-07-30T08:49:40;26.90;1.00
5802;DHT22;2927;49.366;8.530;2022-07-30T08:52:05;26.80;1.00
5802;DHT22;2927;49.366;8.530;2022-07-30T08:54:33;27.20;1.00
5802;DHT22;2927;49.366;8.530;2022-07-30T08:56:59;26.80;1.00
5802;DHT22;2927;49.366;8.530;2022-07-30T08:59:25;26.60;1.00
5802;DHT22;2927;49.366;8.530;2022-07-30T09:01:51;27.10;1.00
5802;DHT22;2927;49.366;8.530;2022-07-30T09:04:16;27.10;1.00
5802;DHT22;2927;49.366;8.530;2022-07-30T09:06:43;27.50;1.00
5802;DHT22;2927;49.366;8.530;2022-07-30T09:09:09;28.40;1.00
5802;DHT22;2927;49.366;8.530;2022-07-30T09:11:34;28.30;1.00
5802;DHT22;2927;49.366;8.530;2022-07-30T09:14:11;28.10;1.00
5802;DHT22;2927;49.366;8.530;2022-07-30T09:16:38;28.00;1.00
5802;DHT22;2927;49.366;8.530;2022-07-30T09:19:15;28.50;1.00
5802;DHT22;2927;49.366;8.530;2022-07-30T09:21:41;28.00;1.00
5802;DHT22;2927;49.366;8.530;2022-07-30T09:24:09;27.60;1.00
5802;DHT22;2927;49.366;8.530;2022-07-30T09:27:01;27.40;1.00
5802;DHT22;2927;49.366;8.530;2022-07-30T09:29:29;27.70;1.00
5802;DHT22;2927;49.366;8.530;2022-07-30T09:32:03;28.20;1.00
5802;DHT22;2927;49.366;8.530;2022-07-30T09:34:31;28.00;1.00
5802;DHT22;2927;49.366;8.530;2022-07-30T09:36:58;27.90;99.90
5802;DHT22;2927;49.366;8.530;2022-07-30T09:39:35;27.70;1.00
5802;DHT22;2927;49.366;8.530;2022-07-30T09:42:03;27.90;1.00
5802;DHT22;2927;49.366;8.530;2022-07-30T09:44:30;27.90;1.00
5802;DHT22;2927;49.366;8.530;2022-07-30T09:46:56;28.00;99.90
5802;DHT22;2927;49.366;8.530;2022-07-30T09:49:27;28.10;99.90
5802;DHT22;2927;49.366;8.530;2022-07-30T09:51:54;28.20;99.90
5802;DHT22;2927;49.366;8.530;2022-07-30T09:54:20;28.00;99.90
5802;DHT22;2927;49.366;8.530;2022-07-30T09:56:46;28.20;99.90
5802;DHT22;2927;49.366;8.530;2022-07-30T09:59:25;28.70;99.90
5802;DHT22;2927;49.366;8.530;2022-07-30T10:01:53;29.00;99.90
5802;DHT22;2927;49.366;8.530;2022-07-30T10:04:30;29.00;99.90
5802;DHT22;2927;49.366;8.530;2022-07-30T10:06:57;29.80;99.90
5802;DHT22;2927;49.366;8.530;2022-07-30T10:11:52;29.30;99.90
5802;DHT22;2927;49.366;8.530;2022-07-30T10:14:17;29.10;99.90
5802;DHT22;2927;49.366;8.530;2022-07-30T10:16:43;29.10;99.90
5802;DHT22;2927;49.366;8.530;2022-07-30T10:19:11;29.10;99.90
5802;DHT22;2927;49.366;8.530;2022-07-30T10:21:36;28.70;99.90
5802;DHT22;2927;49.366;8.530;2022-07-30T10:24:02;28.30;99.90
5802;DHT22;2927;49.366;8.530;2022-07-30T10:26:32;28.20;99.90
5802;DHT22;2927;49.366;8.530;2022-07-30T10:29:00;28.30;99.90
5802;DHT22;2927;49.366;8.530;2022-07-30T10:31:25;27.80;99.90
5802;DHT22;2927;49.366;8.530;2022-07-30T10:33:51;28.10;99.90
5802;DHT22;2927;49.366;8.530;2022-07-30T10:36:18;28.30;99.90
5802;DHT22;2927;49.366;8.530;2022-07-30T10:38:44;28.20;99.90
5802;DHT22;2927;49.366;8.530;2022-07-30T10:43:53;28.00;99.90
5802;DHT22;2927;49.366;8.530;2022-07-30T10:47:11;28.00;99.90
5802;DHT22;2927;49.366;8.530;2022-07-30T10:49:17;28.10;99.90
5802;DHT22;2927;49.366;8.530;2022-07-30T10:51:50;28.40;99.90
5802;DHT22;2927;49.366;8.530;2022-07-30T10:54:39;29.00;99.90
5802;DHT22;2927;49.366;8.530;2022-07-30T10:57:11;28.90;99.90
5802;DHT22;2927;49.366;8.530;2022-07-30T11:02:20;29.20;99.90
5802;DHT22;2927;49.366;8.530;2022-07-30T11:04:46;29.30;99.90
5802;DHT22;2927;49.366;8.530;2022-07-30T11:09:50;29.40;99.90
5802;DHT22;2927;49.366;8.530;2022-07-30T11:15:12;29.40;99.90
5802;DHT22;2927;49.366;8.530;2022-07-30T11:18:03;29.50;99.90
5802;DHT22;2927;49.366;8.530;2022-07-30T11:20:34;29.50;99.90
5802;DHT22;2927;49.366;8.530;2022-07-30T11:25:43;29.40;99.90
5802;DHT22;2927;49.366;8.530;2022-07-30T11:28:34;29.30;99.90
5802;DHT22;2927;49.366;8.530;2022-07-30T11:31:01;29.70;99.90
5802;DHT22;2927;49.366;8.530;2022-07-30T11:33:27;29.70;99.90
5802;DHT22;2927;49.366;8.530;2022-07-30T11:36:08;29.40;99.90
5802;DHT22;2927;49.366;8.530;2022-07-30T11:41:15;29.30;99.90
5802;DHT22;2927;49.366;8.530;2022-07-30T11:43:40;29.20;99.90
5802;DHT22;2927;49.366;8.530;2022-07-30T11:46:18;29.30;99.90
5802;DHT22;2927;49.366;8.530;2022-07-30T11:48:59;29.20;99.90
5802;DHT22;2927;49.366;8.530;2022-07-30T11:51:26;29.40;99.90
5802;DHT22;2927;49.366;8.530;2022-07-30T11:54:03;29.90;99.90
5802;DHT22;2927;49.366;8.530;2022-07-30T11:56:29;30.30;99.90
5802;DHT22;2927;49.366;8.530;2022-07-30T11:59:06;30.50;99.90
5802;DHT22;2927;49.366;8.530;2022-07-30T12:01:33;30.20;99.90
5802;DHT22;2927;49.366;8.530;2022-07-30T12:04:06;29.80;99.90
5802;DHT22;2927;49.366;8.530;2022-07-30T12:06:35;29.90;99.90
5802;DHT22;2927;49.366;8.530;2022-07-30T12:09:07;29.80;99.90
5802;DHT22;2927;49.366;8.530;2022-07-30T12:11:33;29.80;99.90
5802;DHT22;2927;49.366;8.530;2022-07-30T12:14:01;30.00;99.90
5802;DHT22;2927;49.366;8.530;2022-07-30T12:16:29;29.80;99.90
5802;DHT22;2927;49.366;8.530;2022-07-30T12:19:03;29.70;99.90
5802;DHT22;2927;49.366;8.530;2022-07-30T12:21:29;29.90;99.90
5802;DHT22;2927;49.366;8.530;2022-07-30T12:24:00;29.90;99.90
5802;DHT22;2927;49.366;8.530;2022-07-30T12:26:28;29.60;99.90
5802;DHT22;2927;49.366;8.530;2022-07-30T12:28:58;29.70;99.90
5802;DHT22;2927;49.366;8.530;2022-07-30T12:31:25;30.00;99.90
5802;DHT22;2927;49.366;8.530;2022-07-30T12:33:51;29.90;99.90
5802;DHT22;2927;49.366;8.530;2022-07-30T12:36:27;29.50;99.90
5802;DHT22;2927;49.366;8.530;2022-07-30T12:38:54;29.40;99.90
5802;DHT22;2927;49.366;8.530;2022-07-30T12:41:21;28.90;99.90
5802;DHT22;2927;49.366;8.530;2022-07-30T12:43:53;28.50;99.90
5802;DHT22;2927;49.366;8.530;2022-07-30T12:46:22;28.30;99.90
5802;DHT22;2927;49.366;8.530;2022-07-30T12:48:58;28.30;99.90
5802;DHT22;2927;49.366;8.530;2022-07-30T12:51:31;28.50;99.90
5802;DHT22;2927;49.366;8.530;2022-07-30T12:53:58;28.90;99.90
5802;DHT22;2927;49.366;8.530;2022-07-30T12:56:30;29.40;99.90
5802;DHT22;2927;49.366;8.530;2022-07-30T12:58:57;29.50;99.90
5802;DHT22;2927;49.366;8.530;2022-07-30T13:01:40;29.20;99.90
5802;DHT22;2927;49.366;8.530;2022-07-30T13:04:07;29.10;99.90
5802;DHT22;2927;49.366;8.530;2022-07-30T13:06:33;29.00;99.90
5802;DHT22;2927;49.366;8.530;2022-07-30T13:08:59;28.90;99.90
5802;DHT22;2927;49.366;8.530;2022-07-30T13:11:40;28.80;99.90
5802;DHT22;2927;49.366;8.530;2022-07-30T13:14:06;29.20;99.90
5802;DHT22;2927;49.366;8.530;2022-07-30T13:16:33;29.50;99.90
5802;DHT22;2927;49.366;8.530;2022-07-30T13:18:59;29.90;99.90
5802;DHT22;2927;49.366;8.530;2022-07-30T13:21:24;29.90;99.90
5802;DHT22;2927;49.366;8.530;2022-07-30T13:23:50;30.10;99.90
5802;DHT22;2927;49.366;8.530;2022-07-30T13:26:16;29.70;99.90
5802;DHT22;2927;49.366;8.530;2022-07-30T13:28:41;29.50;99.90
5802;DHT22;2927;49.366;8.530;2022-07-30T13:31:07;29.50;99.90
5802;DHT22;2927;49.366;8.530;2022-07-30T13:33:34;29.20;99.90
5802;DHT22;2927;49.366;8.530;2022-07-30T13:36:00;29.10;99.90
5802;DHT22;2927;49.366;8.530;2022-07-30T13:38:27;29.20;99.90
5802;DHT22;2927;49.366;8.530;2022-07-30T13:40:53;29.50;99.90
5802;DHT22;2927;49.366;8.530;2022-07-30T13:43:19;29.70;99.90
5802;DHT22;2927;49.366;8.530;2022-07-30T13:45:45;29.80;99.90
5802;DHT22;2927;49.366;8.530;2022-07-30T13:48:11;30.20;99.90
5802;DHT22;2927;49.366;8.530;2022-07-30T13:50:37;30.20;99.90
5802;DHT22;2927;49.366;8.530;2022-07-30T13:53:04;30.20;99.90
5802;DHT22;2927;49.366;8.530;2022-07-30T13:55:29;29.80;99.90
5802;DHT22;2927;49.366;8.530;2022-07-30T13:57:55;29.70;99.90
5802;DHT22;2927;49.366;8.530;2022-07-30T14:00:21;29.40;99.90
5802;DHT22;2927;49.366;8.530;2022-07-30T14:02:47;29.20;99.90
5802;DHT22;2927;49.366;8.530;2022-07-30T14:05:14;29.20;99.90
5802;DHT22;2927;49.366;8.530;2022-07-30T14:07:40;28.90;99.90
5802;DHT22;2927;49.366;8.530;2022-07-30T14:10:07;28.70;99.90
5802;DHT22;2927;49.366;8.530;2022-07-30T14:12:33;28.60;99.90
5802;DHT22;2927;49.366;8.530;2022-07-30T14:14:59;28.40;99.90
5802;DHT22;2927;49.366;8.530;2022-07-30T14:17:24;28.60;99.90
5802;DHT22;2927;49.366;8.530;2022-07-30T14:19:50;28.70;99.90
5802;DHT22;2927;49.366;8.530;2022-07-30T14:22:19;28.80;99.90
5802;DHT22;2927;49.366;8.530;2022-07-30T14:24:44;28.80;99.90
5802;DHT22;2927;49.366;8.530;2022-07-30T14:27:10;28.80;99.90
5802;DHT22;2927;49.366;8.530;2022-07-30T14:29:35;28.50;99.90
5802;DHT22;2927;49.366;8.530;2022-07-30T14:32:01;28.70;99.90
5802;DHT22;2927;49.366;8.530;2022-07-30T14:34:27;28.80;99.90
5802;DHT22;2927;49.366;8.530;2022-07-30T14:36:52;28.80;99.90
5802;DHT22;2927;49.366;8.530;2022-07-30T14:39:18;28.90;99.90
5802;DHT22;2927;49.366;8.530;2022-07-30T14:41:44;29.30;99.90
5802;DHT22;2927;49.366;8.530;2022-07-30T14:44:10;29.30;99.90
5802;DHT22;2927;49.366;8.530;2022-07-30T14:46:41;29.00;99.90
5802;DHT22;2927;49.366;8.530;2022-07-30T14:49:08;29.20;99.90
5802;DHT22;2927;49.366;8.530;2022-07-30T14:51:34;29.50;99.90
5802;DHT22;2927;49.366;8.530;2022-07-30T14:54:00;30.20;99.90
5802;DHT22;2927;49.366;8.530;2022-07-30T14:56:25;30.80;99.90
5802;DHT22;2927;49.366;8.530;2022-07-30T14:58:51;30.80;99.90
5802;DHT22;2927;49.366;8.530;2022-07-30T15:01:18;31.00;99.90
5802;DHT22;2927;49.366;8.530;2022-07-30T15:03:44;30.80;99.90
5802;DHT22;2927;49.366;8.530;2022-07-30T15:06:10;31.10;99.90
5802;DHT22;2927;49.366;8.530;2022-07-30T15:08:37;31.40;99.90
5802;DHT22;2927;49.366;8.530;2022-07-30T15:11:03;31.40;99.90
5802;DHT22;2927;49.366;8.530;2022-07-30T15:13:28;30.30;99.90
5802;DHT22;2927;49.366;8.530;2022-07-30T15:15:54;29.70;99.90
5802;DHT22;2927;49.366;8.530;2022-07-30T15:18:19;29.60;99.90
5802;DHT22;2927;49.366;8.530;2022-07-30T15:20:45;29.90;99.90
5802;DHT22;2927;49.366;8.530;2022-07-30T15:23:10;29.90;99.90
5802;DHT22;2927;49.366;8.530;2022-07-30T15:25:36;29.90;99.90
5802;DHT22;2927;49.366;8.530;2022-07-30T15:28:01;29.50;99.90
5802;DHT22;2927;49.366;8.530;2022-07-30T15:30:27;29.40;99.90
5802;DHT22;2927;49.366;8.530;2022-07-30T15:32:53;29.50;99.90
5802;DHT22;2927;49.366;8.530;2022-07-30T15:35:19;29.80;99.90
5802;DHT22;2927;49.366;8.530;2022-07-30T15:37:45;30.20;99.90
5802;DHT22;2927;49.366;8.530;2022-07-30T15:40:11;30.30;99.90
5802;DHT22;2927;49.366;8.530;2022-07-30T15:42:36;30.70;99.90
5802;DHT22;2927;49.366;8.530;2022-07-30T15:45:03;31.30;99.90
5802;DHT22;2927;49.366;8.530;2022-07-30T15:47:29;31.00;99.90
5802;DHT22;2927;49.366;8.530;2022-07-30T15:49:55;31.40;99.90
5802;DHT22;2927;49.366;8.530;2022-07-30T15:52:20;31.40;99.90
5802;DHT22;2927;49.366;8.530;2022-07-30T15:54:46;31.10;99.90
5802;DHT22;2927;49.366;8.530;2022-07-30T15:57:11;31.50;99.90
5802;DHT22;2927;49.366;8.530;2022-07-30T15:59:37;32.00;99.90
5802;DHT22;2927;49.366;8.530;2022-07-30T16:02:02;31.50;99.90
5802;DHT22;2927;49.366;8.530;2022-07-30T16:04:28;31.10;99.90
5802;DHT22;2927;49.366;8.530;2022-07-30T16:06:56;30.70;99.90
5802;DHT22;2927;49.366;8.530;2022-07-30T16:09:22;30.60;99.90
5802;DHT22;2927;49.366;8.530;2022-07-30T16:11:48;31.00;99.90
5802;DHT22;2927;49.366;8.530;2022-07-30T16:14:14;31.10;99.90
5802;DHT22;2927;49.366;8.530;2022-07-30T16:16:40;31.20;99.90
5802;DHT22;2927;49.366;8.530;2022-07-30T16:19:05;31.10;99.90
5802;DHT22;2927;49.366;8.530;2022-07-30T16:21:31;30.60;99.90
5802;DHT22;2927;49.366;8.530;2022-07-30T16:23:57;30.70;99.90
5802;DHT22;2927;49.366;8.530;2022-07-30T16:26:23;30.70;99.90
5802;DHT22;2927;49.366;8.530;2022-07-30T16:28:49;30.50;99.90
5802;DHT22;2927;49.366;8.530;2022-07-30T16:31:14;30.60;99.90
5802;DHT22;2927;49.366;8.530;2022-07-30T16:33:40;30.80;99.90
5802;DHT22;2927;49.366;8.530;2022-07-30T16:36:06;30.70;99.90